sensor_id;sensor_type;location;lat;lon;timestamp;temperature;humidity
9450;DHT22;4763;48.370;10.874;2023-04-04T00:01:19;-0.20;99.90
9450;DHT22;4763;48.370;10.874;2023-04-04T00:04:06;-0.20;99.90
9450;DHT22;4763;48.370;10.874;2023-04-04T00:06:55;-0.20;99.90
9450;DHT22;4763;48.370;10.874;2023-04-04T00:09:42;-0.20;99.90
9450;DHT22;4763;48.370;10.874;2023-04-04T00:12:29;-0.20;99.90
9450;DHT22;4763;48.370;10.874;2023-04-04T00:15:17;-0.30;99.90
9450;DHT22;4763;48.370;10.874;2023-04-04T00:18:04;-0.30;99.90
9450;DHT22;4763;48.370;10.874;2023-04-04T00:20:51;-0.20;99.90
9450;DHT22;4763;48.370;10.874;2023-04-04T00:23:39;-0.30;99.90
9450;DHT22;4763;48.370;10.874;2023-04-04T00:26:28;-0.40;99.90
9450;DHT22;4763;48.370;10.874;2023-04-04T00:29:15;-0.40;99.90
9450;DHT22;4763;48.370;10.874;2023-04-04T00:32:02;-0.40;99.90
9450;DHT22;4763;48.370;10.874;2023-04-04T00:34:51;-0.40;99.90
9450;DHT22;4763;48.370;10.874;2023-04-04T00:37:38;-0.40;99.90
9450;DHT22;4763;48.370;10.874;2023-04-04T00:40:27;-0.40;99.90
9450;DHT22;4763;48.370;10.874;2023-04-04T00:43:14;-0.50;99.90
9450;DHT22;4763;48.370;10.874;2023-04-04T00:46:02;-0.50;99.90
9450;DHT22;4763;48.370;10.874;2023-04-04T00:48:49;-0.50;99.90
9450;DHT22;4763;48.370;10.874;2023-04-04T00:51:37;-0.50;99.90
9450;DHT22;4763;48.370;10.874;2023-04-04T00:54:24;-0.50;99.90
9450;DHT22;4763;48.370;10.874;2023-04-04T00:57:13;-0.50;99.90
9450;DHT22;4763;48.370;10.874;2023-04-04T01:00:02;-0.60;99.90
9450;DHT22;4763;48.370;10.874;2023-04-04T01:02:50;-0.60;99.90
9450;DHT22;4763;48.370;10.874;2023-04-04T01:05:38;-0.60;99.90
9450;DHT22;4763;48.370;10.874;2023-04-04T01:08:27;-0.60;99.90
9450;DHT22;4763;48.370;10.874;2023-04-04T01:11:15;-0.60;99.90
9450;DHT22;4763;48.370;10.874;2023-04-04T01:14:04;-0.60;99.90
9450;DHT22;4763;48.370;10.874;2023-04-04T01:16:51;-0.70;99.90
9450;DHT22;4763;48.370;10.874;2023-04-04T01:19:47;-0.60;99.90
9450;DHT22;4763;48.370;10.874;2023-04-04T01:22:37;-0.70;99.90
9450;DHT22;4763;48.370;10.874;2023-04-04T01:25:28;-0.70;99.90
9450;DHT22;4763;48.370;10.874;2023-04-04T01:28:16;-0.70;99.90
9450;DHT22;4763;48.370;10.874;2023-04-04T01:31:06;-0.70;99.90
9450;DHT22;4763;48.370;10.874;2023-04-04T01:33:57;-0.80;99.90
9450;DHT22;4763;48.370;10.874;2023-04-04T01:36:56;-0.80;99.90
9450;DHT22;4763;48.370;10.874;2023-04-04T01:39:48;-0.80;99.90
9450;DHT22;4763;48.370;10.874;2023-04-04T01:42:39;-0.80;99.90
9450;DHT22;4763;48.370;10.874;2023-04-04T01:45:27;-0.80;99.90
9450;DHT22;4763;48.370;10.874;2023-04-04T01:48:15;-0.80;99.90
9450;DHT22;4763;48.370;10.874;2023-04-04T01:51:02;-0.80;99.90
9450;DHT22;4763;48.370;10.874;2023-04-04T01:53:49;-0.80;99.90
9450;DHT22;4763;48.370;10.874;2023-04-04T01:56:36;-0.90;99.90
9450;DHT22;4763;48.370;10.874;2023-04-04T01:59:25;-0.90;99.90
9450;DHT22;4763;48.370;10.874;2023-04-04T02:02:12;-0.90;99.90
9450;DHT22;4763;48.370;10.874;2023-04-04T02:04:59;-0.90;99.90
9450;DHT22;4763;48.370;10.874;2023-04-04T02:07:47;-0.90;99.90
9450;DHT22;4763;48.370;10.874;2023-04-04T02:10:35;-0.90;99.90
9450;DHT22;4763;48.370;10.874;2023-04-04T02:13:22;-1.00;99.90
9450;DHT22;4763;48.370;10.874;2023-04-04T02:16:11;-0.90;99.90
9450;DHT22;4763;48.370;10.874;2023-04-04T02:18:58;-0.90;99.90
9450;DHT22;4763;48.370;10.874;2023-04-04T02:21:45;-1.00;99.90
9450;DHT22;4763;48.370;10.874;2023-04-04T02:24:32;-1.00;99.90
9450;DHT22;4763;48.370;10.874;2023-04-04T02:27:19;-1.00;99.90
9450;DHT22;4763;48.370;10.874;2023-04-04T02:30:07;-1.10;99.90
9450;DHT22;4763;48.370;10.874;2023-04-04T02:32:58;-1.10;99.90
9450;DHT22;4763;48.370;10.874;2023-04-04T02:35:45;-1.10;99.90
9450;DHT22;4763;48.370;10.874;2023-04-04T02:38:32;-1.10;99.90
9450;DHT22;4763;48.370;10.874;2023-04-04T02:41:19;-1.10;99.90
9450;DHT22;4763;48.370;10.874;2023-04-04T02:44:06;-1.10;99.90
9450;DHT22;4763;48.370;10.874;2023-04-04T02:46:54;-1.10;99.90
9450;DHT22;4763;48.370;10.874;2023-04-04T02:49:43;-1.10;99.90
9450;DHT22;4763;48.370;10.874;2023-04-04T02:52:31;-1.10;99.90
9450;DHT22;4763;48.370;10.874;2023-04-04T02:55:18;-1.10;99.90
9450;DHT22;4763;48.370;10.874;2023-04-04T02:58:06;-1.20;99.90
9450;DHT22;4763;48.370;10.874;2023-04-04T03:00:53;-1.20;99.90
9450;DHT22;4763;48.370;10.874;2023-04-04T03:03:40;-1.20;99.90
9450;DHT22;4763;48.370;10.874;2023-04-04T03:06:31;-1.20;99.90
9450;DHT22;4763;48.370;10.874;2023-04-04T03:09:19;-1.20;99.90
9450;DHT22;4763;48.370;10.874;2023-04-04T03:12:06;-1.20;99.90
9450;DHT22;4763;48.370;10.874;2023-04-04T03:14:53;-1.30;99.90
9450;DHT22;4763;48.370;10.874;2023-04-04T03:17:41;-1.30;99.90
9450;DHT22;4763;48.370;10.874;2023-04-04T03:20:28;-1.30;99.90
9450;DHT22;4763;48.370;10.874;2023-04-04T03:23:17;-1.40;99.90
9450;DHT22;4763;48.370;10.874;2023-04-04T03:26:04;-1.40;99.90
9450;DHT22;4763;48.370;10.874;2023-04-04T03:28:51;-1.40;99.90
9450;DHT22;4763;48.370;10.874;2023-04-04T03:31:38;-1.30;99.90
9450;DHT22;4763;48.370;10.874;2023-04-04T03:34:26;-1.40;99.90
9450;DHT22;4763;48.370;10.874;2023-04-04T03:37:13;-1.40;99.90
9450;DHT22;4763;48.370;10.874;2023-04-04T03:40:01;-1.40;99.90
9450;DHT22;4763;48.370;10.874;2023-04-04T03:42:48;-1.40;99.90
9450;DHT22;4763;48.370;10.874;2023-04-04T03:45:36;-1.40;99.90
9450;DHT22;4763;48.370;10.874;2023-04-04T03:48:23;-1.50;99.90
9450;DHT22;4763;48.370;10.874;2023-04-04T03:51:10;-1.50;99.90
9450;DHT22;4763;48.370;10.874;2023-04-04T03:53:57;-1.40;99.90
9450;DHT22;4763;48.370;10.874;2023-04-04T03:56:45;-1.50;99.90
9450;DHT22;4763;48.370;10.874;2023-04-04T03:59:32;-1.50;99.90
9450;DHT22;4763;48.370;10.874;2023-04-04T04:02:20;-1.50;99.90
9450;DHT22;4763;48.370;10.874;2023-04-04T04:05:07;-1.40;99.90
9450;DHT22;4763;48.370;10.874;2023-04-04T04:07:54;-1.50;99.90
9450;DHT22;4763;48.370;10.874;2023-04-04T04:10:42;-1.50;99.90
9450;DHT22;4763;48.370;10.874;2023-04-04T04:13:30;-1.50;99.90
9450;DHT22;4763;48.370;10.874;2023-04-04T04:16:17;-1.50;99.90
9450;DHT22;4763;48.370;10.874;2023-04-04T04:19:05;-1.50;99.90
9450;DHT22;4763;48.370;10.874;2023-04-04T04:21:52;-1.50;99.90
9450;DHT22;4763;48.370;10.874;2023-04-04T04:24:39;-1.60;99.90
9450;DHT22;4763;48.370;10.874;2023-04-04T04:27:26;-1.50;99.90
9450;DHT22;4763;48.370;10.874;2023-04-04T04:30:16;-1.50;99.90
9450;DHT22;4763;48.370;10.874;2023-04-04T04:33:04;-1.50;99.90
9450;DHT22;4763;48.370;10.874;2023-04-04T04:35:51;-1.60;99.90
9450;DHT22;4763;48.370;10.874;2023-04-04T04:38:38;-1.60;99.90
9450;DHT22;4763;48.370;10.874;2023-04-04T04:41:25;-1.60;99.90
9450;DHT22;4763;48.370;10.874;2023-04-04T04:44:13;-1.60;99.90
9450;DHT22;4763;48.370;10.874;2023-04-04T04:47:03;-1.60;99.90
9450;DHT22;4763;48.370;10.874;2023-04-04T04:49:50;-1.70;99.90
9450;DHT22;4763;48.370;10.874;2023-04-04T04:52:37;-1.70;99.90
9450;DHT22;4763;48.370;10.874;2023-04-04T04:55:24;-1.70;99.90
9450;DHT22;4763;48.370;10.874;2023-04-04T04:58:12;-1.70;99.90
9450;DHT22;4763;48.370;10.874;2023-04-04T05:01:01;-1.70;99.90
9450;DHT22;4763;48.370;10.874;2023-04-04T05:03:50;-1.70;99.90
9450;DHT22;4763;48.370;10.874;2023-04-04T05:06:37;-1.70;99.90
9450;DHT22;4763;48.370;10.874;2023-04-04T05:09:24;-1.70;99.90
9450;DHT22;4763;48.370;10.874;2023-04-04T05:12:11;-1.70;99.90
9450;DHT22;4763;48.370;10.874;2023-04-04T05:14:58;-1.70;99.90
9450;DHT22;4763;48.370;10.874;2023-04-04T05:17:45;-1.70;99.90
9450;DHT22;4763;48.370;10.874;2023-04-04T05:20:34;-1.70;99.90
9450;DHT22;4763;48.370;10.874;2023-04-04T05:23:22;-1.60;99.90
9450;DHT22;4763;48.370;10.874;2023-04-04T05:26:09;-1.60;99.90
9450;DHT22;4763;48.370;10.874;2023-04-04T05:28:56;-1.60;99.90
9450;DHT22;4763;48.370;10.874;2023-04-04T05:31:44;-1.60;99.90
9450;DHT22;4763;48.370;10.874;2023-04-04T05:34:31;-1.60;99.90
9450;DHT22;4763;48.370;10.874;2023-04-04T05:37:19;-1.60;99.90
9450;DHT22;4763;48.370;10.874;2023-04-04T05:40:07;-1.60;99.90
9450;DHT22;4763;48.370;10.874;2023-04-04T05:42:54;-1.50;99.90
9450;DHT22;4763;48.370;10.874;2023-04-04T05:45:42;-1.50;99.90
9450;DHT22;4763;48.370;10.874;2023-04-04T05:48:29;-1.50;99.90
9450;DHT22;4763;48.370;10.874;2023-04-04T05:51:16;-1.40;99.90
9450;DHT22;4763;48.370;10.874;2023-04-04T05:54:05;-1.40;99.90
9450;DHT22;4763;48.370;10.874;2023-04-04T05:56:52;-1.30;99.90
9450;DHT22;4763;48.370;10.874;2023-04-04T05:59:40;-1.20;99.90
9450;DHT22;4763;48.370;10.874;2023-04-04T06:02:27;-1.10;99.90
9450;DHT22;4763;48.370;10.874;2023-04-04T06:05:15;-1.10;99.90
9450;DHT22;4763;48.370;10.874;2023-04-04T06:08:02;-1.00;99.90
9450;DHT22;4763;48.370;10.874;2023-04-04T06:10:50;-1.00;99.90
9450;DHT22;4763;48.370;10.874;2023-04-04T06:13:39;-0.80;99.90
9450;DHT22;4763;48.370;10.874;2023-04-04T06:16:27;-0.80;99.90
9450;DHT22;4763;48.370;10.874;2023-04-04T06:19:14;-0.80;99.90
9450;DHT22;4763;48.370;10.874;2023-04-04T06:22:01;-0.70;99.90
9450;DHT22;4763;48.370;10.874;2023-04-04T06:24:48;-0.60;99.90
9450;DHT22;4763;48.370;10.874;2023-04-04T06:27:36;-0.40;99.90
9450;DHT22;4763;48.370;10.874;2023-04-04T06:30:25;-0.40;99.90
9450;DHT22;4763;48.370;10.874;2023-04-04T06:33:12;-0.30;99.90
9450;DHT22;4763;48.370;10.874;2023-04-04T06:35:59;-0.30;99.90
9450;DHT22;4763;48.370;10.874;2023-04-04T06:38:46;-0.20;99.90
9450;DHT22;4763;48.370;10.874;2023-04-04T06:41:33;-0.10;99.90
9450;DHT22;4763;48.370;10.874;2023-04-04T06:44:22;0.00;99.90
9450;DHT22;4763;48.370;10.874;2023-04-04T06:47:09;0.10;99.90
9450;DHT22;4763;48.370;10.874;2023-04-04T06:49:56;0.20;99.90
9450;DHT22;4763;48.370;10.874;2023-04-04T06:52:43;0.30;99.90
9450;DHT22;4763;48.370;10.874;2023-04-04T06:55:32;0.30;99.90
9450;DHT22;4763;48.370;10.874;2023-04-04T06:58:19;0.40;99.90
9450;DHT22;4763;48.370;10.874;2023-04-04T07:01:07;0.50;99.90
9450;DHT22;4763;48.370;10.874;2023-04-04T07:03:54;0.60;99.90
9450;DHT22;4763;48.370;10.874;2023-04-04T07:06:41;0.80;99.90
9450;DHT22;4763;48.370;10.874;2023-04-04T07:09:28;1.00;99.90
9450;DHT22;4763;48.370;10.874;2023-04-04T07:12:16;1.10;99.90
9450;DHT22;4763;48.370;10.874;2023-04-04T07:15:03;1.00;99.90
9450;DHT22;4763;48.370;10.874;2023-04-04T07:17:52;1.10;99.90
9450;DHT22;4763;48.370;10.874;2023-04-04T07:20:39;1.30;99.90
9450;DHT22;4763;48.370;10.874;2023-04-04T07:23:26;1.30;99.90
9450;DHT22;4763;48.370;10.874;2023-04-04T07:26:13;1.50;99.90
9450;DHT22;4763;48.370;10.874;2023-04-04T07:29:00;1.60;99.90
9450;DHT22;4763;48.370;10.874;2023-04-04T07:31:47;1.80;99.90
9450;DHT22;4763;48.370;10.874;2023-04-04T07:34:36;1.90;99.90
9450;DHT22;4763;48.370;10.874;2023-04-04T07:37:23;1.90;99.90
9450;DHT22;4763;48.370;10.874;2023-04-04T07:40:11;2.00;99.90
9450;DHT22;4763;48.370;10.874;2023-04-04T07:42:59;2.10;99.90
9450;DHT22;4763;48.370;10.874;2023-04-04T07:45:46;2.30;99.90
9450;DHT22;4763;48.370;10.874;2023-04-04T07:48:33;2.50;99.90
9450;DHT22;4763;48.370;10.874;2023-04-04T07:51:21;2.50;99.90
9450;DHT22;4763;48.370;10.874;2023-04-04T07:54:14;2.80;99.90
9450;DHT22;4763;48.370;10.874;2023-04-04T07:57:01;3.00;99.90
9450;DHT22;4763;48.370;10.874;2023-04-04T07:59:50;3.10;99.90
9450;DHT22;4763;48.370;10.874;2023-04-04T08:02:37;3.30;99.90
9450;DHT22;4763;48.370;10.874;2023-04-04T08:05:25;3.30;99.90
9450;DHT22;4763;48.370;10.874;2023-04-04T08:08:13;3.30;99.90
9450;DHT22;4763;48.370;10.874;2023-04-04T08:11:01;3.40;99.90
9450;DHT22;4763;48.370;10.874;2023-04-04T08:13:48;3.50;99.90
9450;DHT22;4763;48.370;10.874;2023-04-04T08:16:35;3.60;99.90
9450;DHT22;4763;48.370;10.874;2023-04-04T08:19:23;3.80;99.90
9450;DHT22;4763;48.370;10.874;2023-04-04T08:22:10;3.80;99.90
9450;DHT22;4763;48.370;10.874;2023-04-04T08:24:59;4.10;99.90
9450;DHT22;4763;48.370;10.874;2023-04-04T08:27:46;4.40;99.90
9450;DHT22;4763;48.370;10.874;2023-04-04T08:30:33;4.70;99.90
9450;DHT22;4763;48.370;10.874;2023-04-04T08:33:21;4.60;99.90
9450;DHT22;4763;48.370;10.874;2023-04-04T08:36:08;4.70;99.90
9450;DHT22;4763;48.370;10.874;2023-04-04T08:38:56;4.80;99.90
9450;DHT22;4763;48.370;10.874;2023-04-04T08:41:45;5.00;99.90
9450;DHT22;4763;48.370;10.874;2023-04-04T08:44:32;4.60;99.90
9450;DHT22;4763;48.370;10.874;2023-04-04T08:47:22;4.30;99.90
9450;DHT22;4763;48.370;10.874;2023-04-04T08:50:10;4.20;99.90
9450;DHT22;4763;48.370;10.874;2023-04-04T08:52:58;4.20;99.90
9450;DHT22;4763;48.370;10.874;2023-04-04T08:55:48;4.70;99.90
9450;DHT22;4763;48.370;10.874;2023-04-04T08:58:37;5.40;99.90
9450;DHT22;4763;48.370;10.874;2023-04-04T09:01:24;5.50;99.90
9450;DHT22;4763;48.370;10.874;2023-04-04T09:04:14;5.20;99.90
9450;DHT22;4763;48.370;10.874;2023-04-04T09:07:02;5.20;99.90
9450;DHT22;4763;48.370;10.874;2023-04-04T09:09:51;5.30;99.90
9450;DHT22;4763;48.370;10.874;2023-04-04T09:12:43;5.50;99.90
9450;DHT22;4763;48.370;10.874;2023-04-04T09:15:34;5.70;99.90
9450;DHT22;4763;48.370;10.874;2023-04-04T09:18:23;5.50;99.90
9450;DHT22;4763;48.370;10.874;2023-04-04T09:21:11;5.60;99.90
9450;DHT22;4763;48.370;10.874;2023-04-04T09:23:58;5.60;99.90
9450;DHT22;4763;48.370;10.874;2023-04-04T09:26:46;5.50;99.50
9450;DHT22;4763;48.370;10.874;2023-04-04T09:29:33;5.20;99.90
9450;DHT22;4763;48.370;10.874;2023-04-04T09:32:22;5.70;99.90
9450;DHT22;4763;48.370;10.874;2023-04-04T09:35:11;5.90;99.60
9450;DHT22;4763;48.370;10.874;2023-04-04T09:38:00;5.70;99.90
9450;DHT22;4763;48.370;10.874;2023-04-04T09:40:48;5.60;99.90
9450;DHT22;4763;48.370;10.874;2023-04-04T09:43:38;5.80;99.90
9450;DHT22;4763;48.370;10.874;2023-04-04T09:46:25;6.10;99.90
9450;DHT22;4763;48.370;10.874;2023-04-04T09:49:19;5.80;98.80
9450;DHT22;4763;48.370;10.874;2023-04-04T09:52:16;5.90;99.00
9450;DHT22;4763;48.370;10.874;2023-04-04T09:55:04;6.70;99.50
9450;DHT22;4763;48.370;10.874;2023-04-04T09:57:52;6.90;99.00
9450;DHT22;4763;48.370;10.874;2023-04-04T10:00:40;6.90;98.40
9450;DHT22;4763;48.370;10.874;2023-04-04T10:03:30;6.60;99.20
9450;DHT22;4763;48.370;10.874;2023-04-04T10:06:19;6.30;96.80
9450;DHT22;4763;48.370;10.874;2023-04-04T10:09:07;5.90;98.40
9450;DHT22;4763;48.370;10.874;2023-04-04T10:12:07;5.70;98.00
9450;DHT22;4763;48.370;10.874;2023-04-04T10:14:57;5.70;98.80
9450;DHT22;4763;48.370;10.874;2023-04-04T10:17:45;6.40;99.90
9450;DHT22;4763;48.370;10.874;2023-04-04T10:20:33;7.40;99.80
9450;DHT22;4763;48.370;10.874;2023-04-04T10:23:22;7.60;97.50
9450;DHT22;4763;48.370;10.874;2023-04-04T10:26:12;7.60;98.80
9450;DHT22;4763;48.370;10.874;2023-04-04T10:28:59;7.10;97.30
9450;DHT22;4763;48.370;10.874;2023-04-04T10:31:50;7.40;97.40
9450;DHT22;4763;48.370;10.874;2023-04-04T10:34:44;8.00;98.80
9450;DHT22;4763;48.370;10.874;2023-04-04T10:37:36;8.60;98.60
9450;DHT22;4763;48.370;10.874;2023-04-04T10:40:29;8.70;97.70
9450;DHT22;4763;48.370;10.874;2023-04-04T10:43:20;8.60;97.60
9450;DHT22;4763;48.370;10.874;2023-04-04T10:46:12;8.30;97.60
9450;DHT22;4763;48.370;10.874;2023-04-04T10:49:00;8.50;96.60
9450;DHT22;4763;48.370;10.874;2023-04-04T10:51:50;8.60;95.90
9450;DHT22;4763;48.370;10.874;2023-04-04T10:54:37;8.40;94.90
9450;DHT22;4763;48.370;10.874;2023-04-04T10:57:26;8.30;96.40
9450;DHT22;4763;48.370;10.874;2023-04-04T11:00:15;8.50;97.80
9450;DHT22;4763;48.370;10.874;2023-04-04T11:03:04;8.20;96.80
9450;DHT22;4763;48.370;10.874;2023-04-04T11:05:51;8.40;98.00
9450;DHT22;4763;48.370;10.874;2023-04-04T11:08:53;8.70;96.10
9450;DHT22;4763;48.370;10.874;2023-04-04T11:12:06;8.50;96.60
9450;DHT22;4763;48.370;10.874;2023-04-04T11:14:55;8.50;96.90
9450;DHT22;4763;48.370;10.874;2023-04-04T11:20:49;9.00;94.60
9450;DHT22;4763;48.370;10.874;2023-04-04T11:24:13;9.30;95.00
9450;DHT22;4763;48.370;10.874;2023-04-04T11:27:01;9.40;96.30
9450;DHT22;4763;48.370;10.874;2023-04-04T11:29:49;9.30;95.30
9450;DHT22;4763;48.370;10.874;2023-04-04T11:32:47;9.20;95.50
9450;DHT22;4763;48.370;10.874;2023-04-04T11:35:37;8.90;96.20
9450;DHT22;4763;48.370;10.874;2023-04-04T11:38:26;9.50;96.50
9450;DHT22;4763;48.370;10.874;2023-04-04T11:41:14;10.00;96.50
9450;DHT22;4763;48.370;10.874;2023-04-04T11:44:06;9.80;95.50
9450;DHT22;4763;48.370;10.874;2023-04-04T11:46:55;9.60;95.50
9450;DHT22;4763;48.370;10.874;2023-04-04T11:49:48;9.90;95.40
9450;DHT22;4763;48.370;10.874;2023-04-04T11:52:37;10.00;93.20
9450;DHT22;4763;48.370;10.874;2023-04-04T11:55:24;9.70;93.70
9450;DHT22;4763;48.370;10.874;2023-04-04T11:58:12;9.80;93.50
9450;DHT22;4763;48.370;10.874;2023-04-04T12:01:00;10.00;94.10
9450;DHT22;4763;48.370;10.874;2023-04-04T12:03:48;9.90;93.60
9450;DHT22;4763;48.370;10.874;2023-04-04T12:06:37;10.10;94.70
9450;DHT22;4763;48.370;10.874;2023-04-04T12:09:25;10.10;92.50
9450;DHT22;4763;48.370;10.874;2023-04-04T12:12:13;10.20;93.20
9450;DHT22;4763;48.370;10.874;2023-04-04T12:15:01;10.30;91.40
9450;DHT22;4763;48.370;10.874;2023-04-04T12:17:48;10.50;93.20
9450;DHT22;4763;48.370;10.874;2023-04-04T12:20:37;10.00;94.50
9450;DHT22;4763;48.370;10.874;2023-04-04T12:23:31;10.20;94.80
9450;DHT22;4763;48.370;10.874;2023-04-04T12:26:18;10.40;93.30
9450;DHT22;4763;48.370;10.874;2023-04-04T12:29:06;10.90;95.40
9450;DHT22;4763;48.370;10.874;2023-04-04T12:31:54;11.00;90.90
9450;DHT22;4763;48.370;10.874;2023-04-04T12:34:42;10.70;93.90
9450;DHT22;4763;48.370;10.874;2023-04-04T12:37:30;10.60;92.60
9450;DHT22;4763;48.370;10.874;2023-04-04T12:40:19;10.50;94.00
9450;DHT22;4763;48.370;10.874;2023-04-04T12:43:07;10.10;91.10
9450;DHT22;4763;48.370;10.874;2023-04-04T12:45:56;10.10;93.60
9450;DHT22;4763;48.370;10.874;2023-04-04T12:48:43;10.10;91.60
9450;DHT22;4763;48.370;10.874;2023-04-04T12:51:31;9.70;91.60
9450;DHT22;4763;48.370;10.874;2023-04-04T12:54:27;9.60;90.80
9450;DHT22;4763;48.370;10.874;2023-04-04T12:57:20;9.70;94.00
9450;DHT22;4763;48.370;10.874;2023-04-04T13:00:08;10.30;94.20
9450;DHT22;4763;48.370;10.874;2023-04-04T13:02:56;10.00;92.90
9450;DHT22;4763;48.370;10.874;2023-04-04T13:05:45;9.90;92.00
9450;DHT22;4763;48.370;10.874;2023-04-04T13:08:32;9.60;92.60
9450;DHT22;4763;48.370;10.874;2023-04-04T13:11:20;9.20;94.30
9450;DHT22;4763;48.370;10.874;2023-04-04T13:14:08;9.10;93.20
9450;DHT22;4763;48.370;10.874;2023-04-04T13:17:03;9.20;94.40
9450;DHT22;4763;48.370;10.874;2023-04-04T13:19:52;9.70;92.90
9450;DHT22;4763;48.370;10.874;2023-04-04T13:22:40;10.10;93.70
9450;DHT22;4763;48.370;10.874;2023-04-04T13:25:28;10.80;93.70
9450;DHT22;4763;48.370;10.874;2023-04-04T13:28:15;10.90;93.30
9450;DHT22;4763;48.370;10.874;2023-04-04T13:31:04;10.10;92.30
9450;DHT22;4763;48.370;10.874;2023-04-04T13:33:51;10.80;92.70
9450;DHT22;4763;48.370;10.874;2023-04-04T13:36:38;10.70;92.80
9450;DHT22;4763;48.370;10.874;2023-04-04T13:39:25;10.30;91.50
9450;DHT22;4763;48.370;10.874;2023-04-04T13:42:12;10.70;92.00
9450;DHT22;4763;48.370;10.874;2023-04-04T13:44:59;10.80;91.40
9450;DHT22;4763;48.370;10.874;2023-04-04T13:47:48;11.00;91.90
9450;DHT22;4763;48.370;10.874;2023-04-04T13:50:36;11.60;92.20
9450;DHT22;4763;48.370;10.874;2023-04-04T13:53:23;11.60;91.40
9450;DHT22;4763;48.370;10.874;2023-04-04T13:56:10;11.00;87.60
9450;DHT22;4763;48.370;10.874;2023-04-04T13:58:57;10.40;91.40
9450;DHT22;4763;48.370;10.874;2023-04-04T14:01:44;10.30;91.30
9450;DHT22;4763;48.370;10.874;2023-04-04T14:04:33;9.80;91.20
9450;DHT22;4763;48.370;10.874;2023-04-04T14:07:20;9.30;92.60
9450;DHT22;4763;48.370;10.874;2023-04-04T14:10:08;8.90;92.30
9450;DHT22;4763;48.370;10.874;2023-04-04T14:12:56;9.10;93.80
9450;DHT22;4763;48.370;10.874;2023-04-04T14:15:43;10.10;94.40
9450;DHT22;4763;48.370;10.874;2023-04-04T14:18:30;10.50;91.90
9450;DHT22;4763;48.370;10.874;2023-04-04T14:21:20;10.80;91.50
9450;DHT22;4763;48.370;10.874;2023-04-04T14:24:07;11.30;93.60
9450;DHT22;4763;48.370;10.874;2023-04-04T14:26:54;11.10;91.00
9450;DHT22;4763;48.370;10.874;2023-04-04T14:29:42;11.80;90.50
9450;DHT22;4763;48.370;10.874;2023-04-04T14:32:29;11.40;87.50
9450;DHT22;4763;48.370;10.874;2023-04-04T14:35:16;10.60;89.60
9450;DHT22;4763;48.370;10.874;2023-04-04T14:38:04;10.40;90.50
9450;DHT22;4763;48.370;10.874;2023-04-04T14:40:51;10.00;90.80
9450;DHT22;4763;48.370;10.874;2023-04-04T14:43:38;10.10;90.00
9450;DHT22;4763;48.370;10.874;2023-04-04T14:46:25;11.20;92.90
9450;DHT22;4763;48.370;10.874;2023-04-04T14:49:13;11.60;91.40
9450;DHT22;4763;48.370;10.874;2023-04-04T14:52:00;11.90;91.10
9450;DHT22;4763;48.370;10.874;2023-04-04T14:54:48;11.90;90.50
9450;DHT22;4763;48.370;10.874;2023-04-04T14:57:35;11.10;85.20
9450;DHT22;4763;48.370;10.874;2023-04-04T15:00:23;10.80;90.20
9450;DHT22;4763;48.370;10.874;2023-04-04T15:03:10;11.00;91.50
9450;DHT22;4763;48.370;10.874;2023-04-04T15:05:57;11.70;90.30
9450;DHT22;4763;48.370;10.874;2023-04-04T15:08:44;11.10;91.30
9450;DHT22;4763;48.370;10.874;2023-04-04T15:11:32;10.60;87.50
9450;DHT22;4763;48.370;10.874;2023-04-04T15:14:20;10.30;90.30
9450;DHT22;4763;48.370;10.874;2023-04-04T15:17:08;10.20;91.40
9450;DHT22;4763;48.370;10.874;2023-04-04T15:19:56;10.70;90.90
9450;DHT22;4763;48.370;10.874;2023-04-04T15:22:44;11.20;88.30
9450;DHT22;4763;48.370;10.874;2023-04-04T15:25:31;11.40;90.80
9450;DHT22;4763;48.370;10.874;2023-04-04T15:28:20;12.10;91.40
9450;DHT22;4763;48.370;10.874;2023-04-04T15:31:07;12.50;86.20
9450;DHT22;4763;48.370;10.874;2023-04-04T15:33:54;12.10;90.50
9450;DHT22;4763;48.370;10.874;2023-04-04T15:36:43;12.20;89.00
9450;DHT22;4763;48.370;10.874;2023-04-04T15:39:31;12.00;89.00
9450;DHT22;4763;48.370;10.874;2023-04-04T15:42:18;11.90;89.50
9450;DHT22;4763;48.370;10.874;2023-04-04T15:45:09;11.10;87.80
9450;DHT22;4763;48.370;10.874;2023-04-04T15:47:56;10.40;90.20
9450;DHT22;4763;48.370;10.874;2023-04-04T15:50:44;10.20;91.30
9450;DHT22;4763;48.370;10.874;2023-04-04T15:53:31;10.00;92.70
9450;DHT22;4763;48.370;10.874;2023-04-04T15:56:18;10.60;91.70
9450;DHT22;4763;48.370;10.874;2023-04-04T15:59:06;10.90;89.50
9450;DHT22;4763;48.370;10.874;2023-04-04T16:01:55;11.10;84.40
9450;DHT22;4763;48.370;10.874;2023-04-04T16:04:42;11.20;87.00
9450;DHT22;4763;48.370;10.874;2023-04-04T16:07:30;11.80;87.80
9450;DHT22;4763;48.370;10.874;2023-04-04T16:10:17;11.60;87.90
9450;DHT22;4763;48.370;10.874;2023-04-04T16:13:04;11.20;88.30
9450;DHT22;4763;48.370;10.874;2023-04-04T16:15:51;11.00;88.70
9450;DHT22;4763;48.370;10.874;2023-04-04T16:18:40;10.70;87.30
9450;DHT22;4763;48.370;10.874;2023-04-04T16:21:27;10.30;88.20
9450;DHT22;4763;48.370;10.874;2023-04-04T16:24:14;9.50;89.10
9450;DHT22;4763;48.370;10.874;2023-04-04T16:27:01;8.90;88.80
9450;DHT22;4763;48.370;10.874;2023-04-04T16:29:48;8.40;90.90
9450;DHT22;4763;48.370;10.874;2023-04-04T16:32:36;8.20;90.60
9450;DHT22;4763;48.370;10.874;2023-04-04T16:35:24;8.00;91.30
9450;DHT22;4763;48.370;10.874;2023-04-04T16:38:12;7.60;91.40
9450;DHT22;4763;48.370;10.874;2023-04-04T16:40:59;7.50;93.30
9450;DHT22;4763;48.370;10.874;2023-04-04T16:43:46;7.30;93.20
9450;DHT22;4763;48.370;10.874;2023-04-04T16:46:37;7.20;91.80
9450;DHT22;4763;48.370;10.874;2023-04-04T16:49:24;6.80;92.80
9450;DHT22;4763;48.370;10.874;2023-04-04T16:52:12;6.50;92.20
9450;DHT22;4763;48.370;10.874;2023-04-04T16:54:59;6.50;94.20
9450;DHT22;4763;48.370;10.874;2023-04-04T16:57:46;6.40;93.30
9450;DHT22;4763;48.370;10.874;2023-04-04T17:00:33;6.30;93.20
9450;DHT22;4763;48.370;10.874;2023-04-04T17:03:20;6.30;93.50
9450;DHT22;4763;48.370;10.874;2023-04-04T17:06:08;6.10;93.60
9450;DHT22;4763;48.370;10.874;2023-04-04T17:08:56;6.20;93.10
9450;DHT22;4763;48.370;10.874;2023-04-04T17:11:43;6.10;93.50
9450;DHT22;4763;48.370;10.874;2023-04-04T17:14:31;6.00;93.70
9450;DHT22;4763;48.370;10.874;2023-04-04T17:17:18;6.00;93.60
9450;DHT22;4763;48.370;10.874;2023-04-04T17:20:06;5.80;93.40
9450;DHT22;4763;48.370;10.874;2023-04-04T17:22:53;5.70;93.30
9450;DHT22;4763;48.370;10.874;2023-04-04T17:25:42;5.70;93.80
9450;DHT22;4763;48.370;10.874;2023-04-04T17:28:29;5.50;93.50
9450;DHT22;4763;48.370;10.874;2023-04-04T17:31:16;5.40;94.30
9450;DHT22;4763;48.370;10.874;2023-04-04T17:34:03;5.30;95.10
9450;DHT22;4763;48.370;10.874;2023-04-04T17:36:51;5.30;94.40
9450;DHT22;4763;48.370;10.874;2023-04-04T17:39:39;5.20;94.90
9450;DHT22;4763;48.370;10.874;2023-04-04T17:42:27;5.10;95.40
9450;DHT22;4763;48.370;10.874;2023-04-04T17:45:14;5.10;95.10
9450;DHT22;4763;48.370;10.874;2023-04-04T17:48:02;5.10;95.00
9450;DHT22;4763;48.370;10.874;2023-04-04T17:50:49;5.10;94.10
9450;DHT22;4763;48.370;10.874;2023-04-04T17:53:36;4.90;94.80
9450;DHT22;4763;48.370;10.874;2023-04-04T17:56:24;4.70;95.40
9450;DHT22;4763;48.370;10.874;2023-04-04T17:59:13;4.70;95.50
9450;DHT22;4763;48.370;10.874;2023-04-04T18:02:02;4.70;95.80
9450;DHT22;4763;48.370;10.874;2023-04-04T18:04:49;4.70;96.60
9450;DHT22;4763;48.370;10.874;2023-04-04T18:07:36;4.70;96.30
9450;DHT22;4763;48.370;10.874;2023-04-04T18:10:24;4.60;96.50